Detalii statie AGRIND TASNAD [0000197A]

Toti senzorii

Date Temperatura solului [C]Precipitatii [mm]Voltaj baterie [mV]Leaf Wetness [Min]HC Air temperature [C]HC Relative humidity [%]Punctul de roua [C]
medieminmaxsumaultimatimpmedieminmaxmediemediemin
2019-08-15 21:00:00 21.1 21.1 21.2 0 6952 16.97 16.89 17.05 100 16.9 16.8
2019-08-15 21:10:00 21.1 21.1 21.1 0 6904 16.77 16.72 16.82 100 16.7 16.7
2019-08-15 21:20:00 21.1 21.1 21.1 0 6922 16.53 16.46 16.6 100 16.5 16.4
2019-08-15 21:30:00 21 21 21.1 0 6922 16.26 16.22 16.31 100 16.2 16.2
2019-08-15 21:40:00 21 21 21.1 0 6932 16.14 16.12 16.16 100 16.1 16.1
2019-08-15 21:50:00 21 21 21 0 6932 16.06 16.05 16.08 100 16 16
2019-08-15 22:00:00 20.8 20.8 20.9 0 6942 15.98 15.93 16.03 100 15.9 15.9
2019-08-15 22:10:00 20.9 20.9 20.9 0 6884 15.79 15.77 15.82 100 15.7 15.7
2019-08-15 22:20:00 20.9 20.9 20.9 0 6914 15.66 15.63 15.69 100 15.6 15.6
2019-08-15 22:30:00 20.7 20.7 20.7 0 6914 15.55 15.52 15.59 100 15.5 15.5
2019-08-15 22:40:00 20.8 20.7 20.9 0 6914 15.34 15.3 15.39 100 15.3 15.3
2019-08-15 22:50:00 20.8 20.7 20.9 0 6922 15.05 14.97 15.13 100 15 14.9
2019-08-15 23:00:00 20.6 20.5 20.7 0 6914 14.78 14.72 14.85 100 14.7 14.7
2019-08-15 23:10:00 20.6 20.6 20.7 0 6874 14.47 14.38 14.57 100 14.4 14.3
2019-08-15 23:20:00 20.7 20.6 20.8 0 6894 14.11 14.05 14.18 100 14 14
2019-08-15 23:30:00 20.5 20.4 20.6 0 6894 13.92 13.86 13.98 100 13.8 13.8
2019-08-15 23:40:00 20.6 20.6 20.6 0 6914 13.79 13.77 13.82 100 13.7 13.7
2019-08-15 23:50:00 20.4 20.3 20.5 0 6904 13.73 13.68 13.78 100 13.6 13.6
2019-08-16 00:00:00 20.3 20.3 20.3 0 6914 13.6 13.56 13.64 100 13.5 13.5
2019-08-16 00:10:00 20.4 20.4 20.4 0 6826 13.34 13.27 13.41 100 13.3 13.2
2019-08-16 00:20:00 20.3 20.2 20.4 0 6864 13.21 13.2 13.23 100 13.2 13.2
2019-08-16 00:30:00 20.2 20.2 20.2 0 6874 13.38 13.33 13.43 100 13.3 13.3
2019-08-16 00:40:00 20.1 20 20.2 0 6884 13.11 13.05 13.17 100 13 13
2019-08-16 00:50:00 20.1 20.1 20.1 0 6884 12.94 12.91 12.98 100 12.9 12.9
2019-08-16 01:00:00 20.1 20.1 20.1 0 6894 12.77 12.72 12.82 100 12.7 12.7
2019-08-16 01:10:00 20 20 20 0 6834 12.6 12.57 12.63 100 12.5 12.5
2019-08-16 01:20:00 19.9 19.8 20 0 6854 12.3 12.22 12.38 100 12.2 12.2
2019-08-16 01:30:00 19.9 19.8 20 0 6854 12.14 12.13 12.15 100 12.1 12.1
2019-08-16 01:40:00 19.8 19.8 19.8 0 6864 12.25 12.25 12.25 100 12.2 12.2
2019-08-16 01:50:00 19.8 19.8 19.9 0 6864 12.21 12.2 12.23 100 12.2 12.2
2019-08-16 02:00:00 19.7 19.7 19.7 0 6874 12.11 12.07 12.15 100 12 12
2019-08-16 02:10:00 19.7 19.7 19.7 0 6816 11.92 11.87 11.98 100 11.8 11.8
2019-08-16 02:20:00 19.6 19.5 19.7 0 6834 11.84 11.82 11.86 100 11.8 11.8
2019-08-16 02:30:00 19.6 19.6 19.6 0 6834 11.79 11.74 11.84 100 11.7 11.7
2019-08-16 02:40:00 19.4 19.4 19.5 0 6844 11.47 11.42 11.53 100 11.4 11.4
2019-08-16 02:50:00 19.3 19.3 19.4 0 6844 11.37 11.35 11.39 100 11.3 11.3
2019-08-16 03:00:00 19.3 19.3 19.4 0 6844 11.39 11.34 11.45 100 11.3 11.3
2019-08-16 03:10:00 19.3 19.3 19.3 0 6796 11.17 11.1 11.24 100 11.1 11.1
2019-08-16 03:20:00 19.3 19.3 19.3 0 6816 11.04 11.02 11.06 100 11 11
2019-08-16 03:30:00 19.2 19.2 19.2 0 6816 11.01 11 11.02 100 11 11
2019-08-16 03:40:00 19 19 19.1 0 6834 11.16 11.13 11.19 100 11.1 11.1
2019-08-16 03:50:00 19.1 19 19.2 0 6834 11.19 11.09 11.29 100 11.1 11
2019-08-16 04:00:00 19 19 19.1 0 6834 11.22 11.08 11.36 100 11.1 11
2019-08-16 04:10:00 19 18.9 19.1 0 6786 10.91 10.81 11.02 100 10.9 10.8
2019-08-16 04:20:00 19 18.9 19.2 0 6816 10.7 10.66 10.75 100 10.6 10.6
2019-08-16 04:30:00 18.9 18.9 18.9 0 6816 10.6 10.59 10.62 100 10.5 10.5
2019-08-16 04:40:00 18.8 18.8 18.8 0 6826 10.57 10.55 10.59 100 10.5 10.5
2019-08-16 04:50:00 18.9 18.8 19 0 6834 10.54 10.51 10.58 100 10.5 10.5